Lynemouth, United Kingdom
Current Conditions -  °F | °C
As of 7:50 AM on Tuesday 21 Oct 2014 (Local Time) from EGNT Reporting Station
Scattered Clouds Scattered Clouds  
Wind Chill: 50°   Ceiling: Unl
Heat Index: 50°   Visibility: 6mi
Dew Point: 43°   Wind: 26mph
Humidity: 76%   Direction: 280°W
Pressure: 29.21"   Gusts: NA
Location:  55.21°N, 1.54°W
Report Text: EGNT 210650Z 28023KT 9999 FEW020 SCT040 10/06 Q0989
Loading
Personal Weather Stations






























Interactive Weather Map
Tropical Storm Tracking
New forecast layout! Learn more

10-Day Weather Forecast

Advertisements
Track Severe Weather on mobile